< < Back
Terminal Aerodrome Forecast


Current Version              Previous Versions:   1  2  3  4  5  6  7  8  9  

Terminal Aerodrome Forecast

509
FTUS42 KGSP 191700 RRA
TAFAVL
TAF
KAVL 191742Z 1918/2018 17011KT P6SM VCSH BKN045
     FM200100 13003KT P6SM BKN040
     FM200400 00000KT 3SM BR BKN025
     FM200700 18003KT 2SM BR BKN015
     FM200900 00000KT 1SM BR OVC005
     FM201400 16004KT P6SM BKN015
     FM201700 18006KT P6SM SCT040=



Latest METAR

433
SAUS70 KWBC 191900 RRR
MTRAVL
METAR KAVL 191854Z 16007KT 10SM FEW029 BKN049 OVC070 23/16 A3019 RMK AO2
SLP200 T02330156


USA.gov is the U.S. government's official web portal to all federal, state and local government web resources and services.